createdAt,value
2022-10-13T00:00:41.382Z,19.80
2022-10-13T00:03:11.626Z,31.90
2022-10-13T00:05:42.851Z,19.73
2022-10-13T00:08:11.551Z,30.17
2022-10-13T00:10:41.616Z,44.23
2022-10-13T00:13:10.196Z,38.77
2022-10-13T00:15:39.889Z,31.97
2022-10-13T00:18:08.631Z,27.47
2022-10-13T00:20:44.059Z,23.90
2022-10-13T00:23:13.978Z,26.07
2022-10-13T00:25:43.576Z,22.57
2022-10-13T00:28:13.731Z,21.27
2022-10-13T00:30:43.121Z,22.97
2022-10-13T00:33:13.130Z,25.57
2022-10-13T00:35:47.150Z,17.67
2022-10-13T00:38:16.579Z,21.30
2022-10-13T00:40:46.205Z,28.13
2022-10-13T00:43:19.090Z,19.00
2022-10-13T00:45:49.997Z,17.03
2022-10-13T00:48:20.182Z,23.10
2022-10-13T00:50:50.493Z,19.13
2022-10-13T00:53:21.799Z,22.90
2022-10-13T00:55:52.015Z,18.93
2022-10-13T00:58:23.121Z,21.80
2022-10-13T01:00:52.988Z,20.83
2022-10-13T01:03:21.780Z,23.10
2022-10-13T01:05:52.444Z,19.17
2022-10-13T01:08:22.214Z,19.80
2022-10-13T01:10:57.914Z,19.00
2022-10-13T01:13:35.701Z,19.47
2022-10-13T01:16:14.015Z,18.77
2022-10-13T01:18:51.513Z,21.07
2022-10-13T01:21:27.368Z,18.53
2022-10-13T01:24:29.427Z,24.60
2022-10-13T01:27:10.293Z,20.80
2022-10-13T01:30:05.327Z,20.27
2022-10-13T01:32:51.943Z,21.97
2022-10-13T01:35:26.174Z,23.10
2022-10-13T01:38:03.381Z,22.23
2022-10-13T01:40:38.185Z,19.27
2022-10-13T01:43:11.803Z,18.20
2022-10-13T01:45:47.539Z,23.87
2022-10-13T01:48:17.993Z,23.10
2022-10-13T01:50:46.694Z,20.40
2022-10-13T01:53:17.920Z,25.10
2022-10-13T01:55:53.841Z,24.10
2022-10-13T01:58:23.154Z,22.80
2022-10-13T02:01:04.535Z,23.90
2022-10-13T02:03:45.040Z,20.70
2022-10-13T02:06:22.065Z,21.17
2022-10-13T02:08:59.875Z,20.27
2022-10-13T02:11:29.727Z,28.80
2022-10-13T02:14:04.386Z,23.90
2022-10-13T02:16:37.902Z,21.67
2022-10-13T02:19:07.542Z,22.80
2022-10-13T02:21:37.138Z,22.53
2022-10-13T02:24:06.597Z,23.03
2022-10-13T02:26:36.162Z,23.20
2022-10-13T02:29:10.668Z,21.77
2022-10-13T02:31:41.292Z,24.03
2022-10-13T02:34:09.394Z,26.67
2022-10-13T02:36:39.124Z,24.93
2022-10-13T02:39:08.402Z,26.13
2022-10-13T02:41:37.818Z,25.13
2022-10-13T02:44:07.050Z,25.50
2022-10-13T02:46:35.400Z,35.17
2022-10-13T02:49:04.944Z,35.20
2022-10-13T02:51:38.935Z,35.33
2022-10-13T02:54:08.170Z,28.30
2022-10-13T02:56:36.322Z,30.93
2022-10-13T02:59:04.946Z,28.33
2022-10-13T03:01:33.024Z,34.07
2022-10-13T03:04:01.165Z,32.13
2022-10-13T03:06:30.727Z,29.30
2022-10-13T03:08:59.288Z,38.73
2022-10-13T03:11:27.349Z,35.80
2022-10-13T03:13:55.477Z,36.73
2022-10-13T03:16:23.828Z,34.23
2022-10-13T03:18:51.895Z,32.37
2022-10-13T03:21:20.139Z,31.73
2022-10-13T03:23:49.628Z,34.07
2022-10-13T03:26:18.040Z,33.40
2022-10-13T03:28:50.528Z,32.23
2022-10-13T03:31:19.165Z,27.40
2022-10-13T03:33:48.014Z,31.93
2022-10-13T03:36:16.149Z,32.43
2022-10-13T03:38:44.390Z,40.30
2022-10-13T03:41:17.063Z,40.07
2022-10-13T03:43:46.203Z,43.80
2022-10-13T03:46:16.562Z,50.23
2022-10-13T03:48:45.024Z,44.63
2022-10-13T03:51:14.962Z,34.40
2022-10-13T03:53:47.121Z,36.93
2022-10-13T03:56:18.851Z,78.90
2022-10-13T03:58:47.416Z,37.43
2022-10-13T04:01:16.983Z,40.67
2022-10-13T04:03:45.225Z,66.67
2022-10-13T04:10:11.151Z,42.67
2022-10-13T04:12:55.909Z,32.10
2022-10-13T04:18:51.066Z,36.70
2022-10-13T04:21:27.168Z,30.93
2022-10-13T04:23:57.176Z,23.00
2022-10-13T04:26:26.843Z,22.60
2022-10-13T04:28:57.181Z,21.90
2022-10-13T04:31:25.735Z,24.00
2022-10-13T04:33:54.940Z,20.47
2022-10-13T04:36:23.086Z,27.33
2022-10-13T04:38:51.139Z,31.40
2022-10-13T04:41:20.421Z,27.50
2022-10-13T04:43:50.421Z,23.93
2022-10-13T04:46:23.001Z,29.93
2022-10-13T04:48:51.852Z,23.30
2022-10-13T04:51:22.288Z,26.03
2022-10-13T04:53:56.282Z,26.07
2022-10-13T04:56:25.393Z,22.97
2022-10-13T04:58:53.487Z,22.47
2022-10-13T05:01:26.357Z,23.73
2022-10-13T05:03:55.456Z,22.07
2022-10-13T05:06:25.621Z,24.30
2022-10-13T05:08:54.127Z,24.37
2022-10-13T05:11:22.362Z,29.67
2022-10-13T05:13:50.997Z,25.93
2022-10-13T05:16:21.188Z,25.23
2022-10-13T05:18:52.647Z,32.63
2022-10-13T05:21:23.087Z,20.93
2022-10-13T05:23:53.903Z,21.80
2022-10-13T05:26:36.920Z,25.43
2022-10-13T05:29:20.740Z,25.97
2022-10-13T05:31:57.995Z,23.37
2022-10-13T05:34:44.975Z,24.10
2022-10-13T05:37:31.537Z,22.47
2022-10-13T05:40:08.671Z,21.40
2022-10-13T05:42:41.912Z,22.40
2022-10-13T05:45:11.739Z,25.70
2022-10-13T05:47:39.841Z,22.70
2022-10-13T05:50:10.579Z,25.70
2022-10-13T05:52:39.366Z,27.60
2022-10-13T05:55:11.521Z,26.80
2022-10-13T05:57:43.729Z,27.13
2022-10-13T06:00:14.760Z,21.50
2022-10-13T06:02:46.095Z,24.40
2022-10-13T06:05:25.484Z,25.87
2022-10-13T06:07:54.885Z,30.57
2022-10-13T06:10:23.365Z,31.33
2022-10-13T06:12:51.560Z,34.87
2022-10-13T06:15:27.116Z,28.80
2022-10-13T06:17:59.942Z,39.00
2022-10-13T06:20:32.644Z,29.00
2022-10-13T06:28:49.809Z,36.50
2022-10-13T06:31:49.059Z,35.20
2022-10-13T06:34:38.454Z,29.70
2022-10-13T06:37:14.871Z,28.87
2022-10-13T06:39:58.451Z,30.30
2022-10-13T06:42:36.419Z,29.00
2022-10-13T06:45:26.283Z,30.57
2022-10-13T06:48:12.125Z,30.93
2022-10-13T06:50:43.037Z,29.27
2022-10-13T06:53:27.538Z,22.97
2022-10-13T06:56:45.285Z,27.17
2022-10-13T06:59:29.457Z,24.20
2022-10-13T07:02:01.601Z,26.17
2022-10-13T07:04:36.729Z,26.67
2022-10-13T07:07:04.910Z,28.03
2022-10-13T07:09:38.375Z,25.40
2022-10-13T07:12:07.747Z,23.00
2022-10-13T07:14:38.191Z,26.10
2022-10-13T07:17:09.528Z,27.00
2022-10-13T07:19:37.851Z,26.80
2022-10-13T07:22:06.446Z,22.67
2022-10-13T07:24:36.038Z,26.77
2022-10-13T07:27:07.639Z,24.93
2022-10-13T07:29:36.611Z,24.97
2022-10-13T07:32:04.826Z,27.13
2022-10-13T07:34:33.108Z,28.30
2022-10-13T07:37:28.443Z,23.27
2022-10-13T07:40:00.395Z,22.80
2022-10-13T07:42:29.244Z,26.00
2022-10-13T07:44:57.441Z,23.87
2022-10-13T07:47:26.707Z,28.43
2022-10-13T07:49:56.788Z,27.00
2022-10-13T07:52:25.096Z,26.67
2022-10-13T07:54:53.994Z,29.63
2022-10-13T07:57:26.863Z,30.67
2022-10-13T07:59:55.068Z,23.20
2022-10-13T08:02:27.706Z,32.70
2022-10-13T08:04:57.625Z,29.90
2022-10-13T08:07:27.782Z,28.17
2022-10-13T08:09:56.979Z,29.00
2022-10-13T08:12:27.994Z,30.83
2022-10-13T08:14:59.386Z,31.23
2022-10-13T08:17:30.341Z,32.00
2022-10-13T08:19:58.207Z,32.90
2022-10-13T08:22:28.390Z,32.90
2022-10-13T08:24:57.493Z,28.00
2022-10-13T08:27:42.181Z,31.63
2022-10-13T08:30:15.300Z,27.03
2022-10-13T08:32:43.692Z,27.90
2022-10-13T08:35:12.364Z,28.67
2022-10-13T08:37:40.888Z,28.27
2022-10-13T08:40:13.840Z,32.10
2022-10-13T08:42:45.763Z,30.23
2022-10-13T08:48:17.177Z,32.20
2022-10-13T08:50:50.727Z,42.37
2022-10-13T08:53:26.734Z,35.30
2022-10-13T08:55:59.787Z,33.10
2022-10-13T08:58:32.056Z,33.40
2022-10-13T09:01:11.355Z,28.03
2022-10-13T09:03:48.298Z,29.13
2022-10-13T09:06:21.663Z,34.77
2022-10-13T09:08:54.367Z,31.90
2022-10-13T09:11:22.939Z,33.80
2022-10-13T09:13:56.660Z,38.13
2022-10-13T09:16:30.269Z,34.27
2022-10-13T09:19:36.525Z,34.97
2022-10-13T09:22:21.248Z,34.20
2022-10-13T09:24:49.462Z,36.53
2022-10-13T09:27:18.757Z,34.97
2022-10-13T09:29:48.475Z,40.30
2022-10-13T09:32:21.104Z,32.10
2022-10-13T09:34:49.961Z,35.43
2022-10-13T09:37:21.003Z,38.80
2022-10-13T09:40:01.430Z,39.20
2022-10-13T09:42:31.837Z,39.37
2022-10-13T09:45:10.836Z,36.00
2022-10-13T09:47:39.977Z,41.97
2022-10-13T09:50:19.012Z,36.20
2022-10-13T09:52:48.703Z,36.07
2022-10-13T09:55:32.924Z,37.93
2022-10-13T09:58:06.820Z,40.53
2022-10-13T10:00:37.628Z,35.67
2022-10-13T10:03:12.018Z,39.13
2022-10-13T10:05:45.783Z,35.03
2022-10-13T10:08:18.188Z,38.93
2022-10-13T10:10:47.445Z,39.37
2022-10-13T10:13:16.640Z,44.70
2022-10-13T10:15:56.685Z,40.77
2022-10-13T10:18:33.206Z,36.13
2022-10-13T10:21:10.842Z,36.13
2022-10-13T10:23:47.330Z,35.97
2022-10-13T10:26:24.301Z,35.97
2022-10-13T10:29:15.258Z,42.43
2022-10-13T10:31:55.279Z,44.30
2022-10-13T10:34:32.147Z,36.83
2022-10-13T10:37:13.915Z,44.70
2022-10-13T10:39:48.473Z,57.10
2022-10-13T10:42:52.203Z,44.33
2022-10-13T10:45:24.475Z,45.13
2022-10-13T10:47:57.826Z,40.57
2022-10-13T10:50:27.601Z,43.80
2022-10-13T10:53:02.864Z,46.07
2022-10-13T10:55:36.403Z,44.70
2022-10-13T10:58:15.917Z,43.00
2022-10-13T11:00:53.014Z,43.40
2022-10-13T11:03:32.366Z,38.40
2022-10-13T11:06:02.939Z,46.87
2022-10-13T11:08:40.023Z,39.47
2022-10-13T11:11:37.246Z,38.00
2022-10-13T11:14:30.245Z,40.13
2022-10-13T11:17:16.030Z,36.03
2022-10-13T11:19:46.235Z,33.80
2022-10-13T11:22:19.635Z,36.10
2022-10-13T11:24:59.383Z,30.77
2022-10-13T11:27:42.034Z,34.83
2022-10-13T11:30:43.569Z,37.00
2022-10-13T11:33:35.020Z,30.40
2022-10-13T11:36:39.508Z,30.20
2022-10-13T11:39:39.627Z,37.40
2022-10-13T11:42:22.369Z,27.20
2022-10-13T11:44:55.465Z,30.60
2022-10-13T11:47:49.599Z,29.87
2022-10-13T11:50:26.229Z,32.17
2022-10-13T11:53:18.727Z,30.70
2022-10-13T11:55:51.292Z,23.30
2022-10-13T11:58:23.091Z,28.40
2022-10-13T12:00:56.339Z,25.50
2022-10-13T12:03:27.744Z,22.63
2022-10-13T12:05:58.872Z,24.07
2022-10-13T12:08:29.486Z,28.30
2022-10-13T12:11:00.118Z,27.50
2022-10-13T12:13:30.407Z,26.63
2022-10-13T12:16:01.025Z,24.80
2022-10-13T12:18:34.256Z,27.50
2022-10-13T12:21:04.638Z,22.47
2022-10-13T12:23:34.136Z,28.47
2022-10-13T12:26:02.447Z,31.10
2022-10-13T12:28:31.811Z,24.40
2022-10-13T12:31:01.037Z,24.63
2022-10-13T12:33:31.474Z,23.20
2022-10-13T12:36:13.973Z,21.20
2022-10-13T12:38:48.506Z,22.80
2022-10-13T12:41:20.094Z,23.33
2022-10-13T12:43:48.290Z,19.27
2022-10-13T12:46:37.407Z,26.13
2022-10-13T12:49:06.428Z,25.40
2022-10-13T12:51:35.567Z,25.83
2022-10-13T12:54:10.645Z,31.20
2022-10-13T12:56:38.735Z,26.37
2022-10-13T12:59:07.127Z,22.30
2022-10-13T13:01:38.343Z,26.07
2022-10-13T13:04:19.098Z,21.30
2022-10-13T13:06:55.542Z,24.13
2022-10-13T13:09:38.847Z,21.03
2022-10-13T13:12:24.961Z,27.23
2022-10-13T13:14:55.399Z,26.13
2022-10-13T13:17:52.866Z,25.30
2022-10-13T13:20:23.234Z,21.07
2022-10-13T13:22:51.990Z,30.60
2022-10-13T13:25:21.696Z,25.13
2022-10-13T13:27:50.182Z,26.17
2022-10-13T13:30:19.855Z,28.20
2022-10-13T13:32:49.643Z,25.27
2022-10-13T13:35:17.914Z,27.10
2022-10-13T13:37:49.835Z,23.07
2022-10-13T13:40:21.857Z,22.50
2022-10-13T13:42:50.052Z,19.70
2022-10-13T13:45:20.504Z,26.30
2022-10-13T13:47:48.894Z,26.43
2022-10-13T13:50:19.950Z,27.20
2022-10-13T13:52:47.926Z,23.23
2022-10-13T13:55:16.625Z,25.90
2022-10-13T13:57:46.661Z,24.60
2022-10-13T14:00:16.462Z,29.00
2022-10-13T14:02:47.239Z,25.23
2022-10-13T14:05:20.433Z,28.53
2022-10-13T14:07:51.531Z,34.30
2022-10-13T14:10:25.150Z,31.17
2022-10-13T14:12:57.556Z,23.33
2022-10-13T14:15:29.895Z,23.20
2022-10-13T14:18:01.981Z,23.40
2022-10-13T14:20:32.766Z,27.90
2022-10-13T14:23:04.728Z,26.73
2022-10-13T14:25:35.214Z,26.30
2022-10-13T14:28:07.830Z,27.43
2022-10-13T14:30:38.099Z,32.13
2022-10-13T14:33:08.158Z,24.83
2022-10-13T14:35:39.891Z,33.63
2022-10-13T14:38:12.889Z,33.17
2022-10-13T14:40:44.292Z,28.43
2022-10-13T14:43:16.603Z,31.80
2022-10-13T14:45:46.359Z,27.43
2022-10-13T14:48:18.007Z,33.23
2022-10-13T14:50:50.821Z,26.23
2022-10-13T14:53:18.807Z,28.13
2022-10-13T14:55:48.224Z,28.33
2022-10-13T14:58:17.582Z,26.90
2022-10-13T15:00:45.642Z,29.53
2022-10-13T15:03:15.129Z,26.50
2022-10-13T15:05:43.328Z,30.23
2022-10-13T15:08:11.674Z,26.40
2022-10-13T15:10:39.529Z,28.93
2022-10-13T15:13:07.774Z,32.43
2022-10-13T15:15:39.536Z,55.43
2022-10-13T15:18:08.646Z,35.17
2022-10-13T15:20:39.698Z,29.97
2022-10-13T15:23:07.863Z,29.33
2022-10-13T15:25:35.936Z,28.40
2022-10-13T15:28:04.114Z,28.27
2022-10-13T15:30:35.976Z,29.67
2022-10-13T15:33:05.861Z,27.00
2022-10-13T15:35:37.732Z,28.07
2022-10-13T15:38:05.931Z,28.40
2022-10-13T15:40:35.843Z,35.97
2022-10-13T15:43:04.191Z,31.60
2022-10-13T15:45:32.694Z,31.80
2022-10-13T15:48:00.902Z,30.83
2022-10-13T15:50:30.767Z,31.97
2022-10-13T15:53:01.670Z,35.63
2022-10-13T15:55:33.449Z,31.93
2022-10-13T15:58:02.009Z,28.47
2022-10-13T16:00:30.299Z,32.63
2022-10-13T16:02:58.425Z,33.83
2022-10-13T16:05:26.557Z,33.70
2022-10-13T16:07:56.293Z,32.43
2022-10-13T16:10:26.207Z,30.77
2022-10-13T16:12:54.280Z,36.17
2022-10-13T16:15:22.413Z,40.10
2022-10-13T16:17:53.309Z,40.73
2022-10-13T16:23:34.498Z,39.07
2022-10-13T16:26:03.324Z,46.27
2022-10-13T16:28:31.676Z,39.67
2022-10-13T16:31:04.837Z,38.37
2022-10-13T16:33:36.612Z,38.43
2022-10-13T16:36:05.623Z,37.00
2022-10-13T16:38:35.935Z,41.93
2022-10-13T16:41:05.217Z,38.93
2022-10-13T16:43:33.447Z,41.00
2022-10-13T16:46:03.623Z,42.50
2022-10-13T16:48:33.409Z,34.13
2022-10-13T16:51:06.516Z,40.63
2022-10-13T16:53:36.174Z,39.67
2022-10-13T16:56:06.772Z,37.23
2022-10-13T16:58:35.583Z,45.67
2022-10-13T17:01:05.846Z,45.50
2022-10-13T17:03:34.086Z,38.63
2022-10-13T17:06:02.199Z,37.60
2022-10-13T17:08:30.262Z,34.57
2022-10-13T17:11:00.785Z,38.80
2022-10-13T17:13:33.735Z,39.23
2022-10-13T17:16:05.049Z,39.37
2022-10-13T17:18:35.176Z,38.93
2022-10-13T17:21:05.978Z,32.93
2022-10-13T17:23:34.093Z,42.03
2022-10-13T17:26:06.373Z,38.10
2022-10-13T17:28:34.716Z,33.90
2022-10-13T17:31:05.214Z,47.00
2022-10-13T17:33:35.840Z,34.20
2022-10-13T17:36:06.209Z,33.43
2022-10-13T17:38:34.986Z,43.73
2022-10-13T17:41:06.171Z,45.43
2022-10-13T17:43:35.768Z,39.47
2022-10-13T17:46:35.060Z,42.27
2022-10-13T17:49:01.740Z,39.63
2022-10-13T17:51:29.904Z,36.07
2022-10-13T17:54:00.299Z,44.40
2022-10-13T17:56:30.589Z,38.93
2022-10-13T17:59:00.045Z,40.43
2022-10-13T18:01:30.291Z,43.63
2022-10-13T18:04:00.397Z,44.70
2022-10-13T18:06:35.153Z,42.30
2022-10-13T18:09:06.317Z,50.80
2022-10-13T18:11:36.434Z,39.87
2022-10-13T18:14:05.188Z,42.40
2022-10-13T18:16:33.803Z,48.33
2022-10-13T18:19:02.764Z,39.33
2022-10-13T18:21:30.875Z,40.20
2022-10-13T18:24:01.229Z,42.50
2022-10-13T18:26:35.040Z,41.97
2022-10-13T18:29:06.821Z,37.40
2022-10-13T18:31:37.433Z,34.37
2022-10-13T18:34:07.600Z,39.07
2022-10-13T18:36:37.790Z,32.77
2022-10-13T18:39:08.641Z,33.67
2022-10-13T18:41:38.093Z,38.40
2022-10-13T18:44:08.928Z,46.50
2022-10-13T18:46:38.461Z,37.13
2022-10-13T18:49:09.237Z,40.27
2022-10-13T18:51:37.763Z,37.80
2022-10-13T18:54:06.710Z,38.90
2022-10-13T18:56:36.883Z,40.27
2022-10-13T18:59:08.987Z,39.07
2022-10-13T19:01:39.375Z,39.80
2022-10-13T19:04:08.676Z,49.43
2022-10-13T19:06:37.009Z,46.97
2022-10-13T19:09:09.708Z,41.17
2022-10-13T19:11:38.719Z,39.67
2022-10-13T19:14:12.069Z,45.37
2022-10-13T19:16:41.939Z,41.47
2022-10-13T19:19:10.375Z,40.30
2022-10-13T19:21:39.274Z,41.93
2022-10-13T19:24:08.119Z,42.17
2022-10-13T19:26:37.326Z,40.93
2022-10-13T19:29:09.166Z,50.97
2022-10-13T19:31:38.609Z,42.90
2022-10-13T19:34:07.032Z,42.57
2022-10-13T19:36:37.517Z,35.13
2022-10-13T19:39:10.832Z,33.27
2022-10-13T19:41:40.336Z,37.40
2022-10-13T19:44:11.046Z,31.30
2022-10-13T19:46:39.685Z,32.70
2022-10-13T19:49:08.001Z,27.70
2022-10-13T19:51:38.318Z,26.00
2022-10-13T19:54:06.820Z,25.47
2022-10-13T19:56:34.971Z,26.37
2022-10-13T19:59:05.502Z,24.90
2022-10-13T20:01:39.809Z,21.03
2022-10-13T20:04:08.251Z,22.87
2022-10-13T20:06:36.765Z,20.90
2022-10-13T20:09:05.415Z,20.90
2022-10-13T20:11:33.978Z,20.53
2022-10-13T20:14:02.193Z,23.40
2022-10-13T20:16:30.807Z,18.53
2022-10-13T20:19:01.674Z,20.63
2022-10-13T20:21:30.358Z,21.30
2022-10-13T20:23:58.769Z,18.10
2022-10-13T20:26:27.401Z,19.27
2022-10-13T20:28:55.838Z,16.53
2022-10-13T20:31:25.246Z,20.17
2022-10-13T20:33:56.063Z,20.10
2022-10-13T20:36:28.644Z,15.83
2022-10-13T20:38:57.040Z,19.10
2022-10-13T20:41:28.438Z,19.03
2022-10-13T20:43:58.394Z,18.73
2022-10-13T20:46:27.667Z,16.10
2022-10-13T20:49:13.439Z,18.50
2022-10-13T20:51:44.240Z,17.30
2022-10-13T20:54:14.587Z,15.60
2022-10-13T20:56:43.283Z,17.70
2022-10-13T20:59:14.580Z,17.93
2022-10-13T21:01:43.032Z,13.07
2022-10-13T21:04:11.278Z,18.03
2022-10-13T21:06:40.075Z,17.23
2022-10-13T21:09:10.270Z,14.80
2022-10-13T21:11:39.643Z,13.30
2022-10-13T21:14:09.795Z,15.27
2022-10-13T21:16:39.481Z,14.40
2022-10-13T21:19:08.882Z,11.27
2022-10-13T21:21:37.912Z,13.20
2022-10-13T21:24:08.295Z,15.70
2022-10-13T21:26:38.940Z,14.80
2022-10-13T21:29:07.317Z,16.03
2022-10-13T21:31:36.031Z,17.60
2022-10-13T21:34:04.539Z,17.40
2022-10-13T21:36:34.778Z,14.23
2022-10-13T21:39:05.271Z,20.40
2022-10-13T21:41:33.535Z,17.90
2022-10-13T21:44:03.773Z,20.67
2022-10-13T21:46:34.023Z,18.27
2022-10-13T21:49:04.079Z,19.77
2022-10-13T21:51:34.018Z,26.73
2022-10-13T21:54:04.125Z,17.93
2022-10-13T21:56:33.620Z,21.47
2022-10-13T21:59:03.804Z,17.60
2022-10-13T22:01:32.290Z,21.17
2022-10-13T22:04:04.731Z,17.70
2022-10-13T22:06:34.398Z,21.77
2022-10-13T22:09:05.114Z,20.73
2022-10-13T22:11:36.664Z,19.23
2022-10-13T22:14:07.302Z,18.83
2022-10-13T22:16:39.187Z,21.43
2022-10-13T22:19:08.213Z,17.90
2022-10-13T22:21:38.597Z,24.73
2022-10-13T22:24:09.607Z,18.80
2022-10-13T22:26:39.047Z,19.10
2022-10-13T22:29:10.102Z,18.07
2022-10-13T22:31:38.592Z,20.20
2022-10-13T22:34:07.051Z,22.77
2022-10-13T22:36:38.041Z,23.17
2022-10-13T22:39:07.913Z,17.27
2022-10-13T22:41:36.397Z,21.93
2022-10-13T22:44:05.100Z,21.30
2022-10-13T22:46:37.578Z,21.93
2022-10-13T22:49:06.486Z,25.07
2022-10-13T22:51:36.151Z,27.30
2022-10-13T22:54:05.593Z,21.40
2022-10-13T22:56:38.746Z,22.20
2022-10-13T22:59:09.096Z,25.40
2022-10-13T23:01:38.649Z,24.33
2022-10-13T23:04:07.805Z,24.67
2022-10-13T23:06:37.048Z,24.93
2022-10-13T23:09:07.906Z,26.40
2022-10-13T23:11:36.124Z,25.03
2022-10-13T23:14:04.342Z,25.47
2022-10-13T23:16:32.446Z,35.90
2022-10-13T23:19:02.206Z,28.70
2022-10-13T23:21:31.773Z,29.07
2022-10-13T23:24:01.620Z,27.70
2022-10-13T23:26:30.065Z,31.73
2022-10-13T23:28:59.447Z,29.40
2022-10-13T23:31:28.727Z,28.03
2022-10-13T23:33:57.171Z,26.53
2022-10-13T23:36:28.784Z,31.40
2022-10-13T23:38:58.273Z,30.93
2022-10-13T23:41:28.451Z,25.80
2022-10-13T23:43:57.028Z,28.40
2022-10-13T23:46:25.513Z,31.83
2022-10-13T23:48:53.609Z,30.77
2022-10-13T23:51:24.078Z,28.87
2022-10-13T23:53:54.000Z,27.80
2022-10-13T23:56:22.149Z,29.97
2022-10-13T23:58:50.811Z,29.23
